createdAt,value
2022-11-06T00:02:23.206Z,9.67
2022-11-06T00:05:45.921Z,9.62
2022-11-06T00:08:48.553Z,9.66
2022-11-06T00:11:52.824Z,9.62
2022-11-06T00:14:55.267Z,9.58
2022-11-06T00:17:57.627Z,9.63
2022-11-06T00:21:00.269Z,9.67
2022-11-06T00:24:04.841Z,9.66
2022-11-06T00:27:07.206Z,9.60
2022-11-06T00:30:14.032Z,9.48
2022-11-06T00:33:16.384Z,9.60
2022-11-06T00:36:21.098Z,9.60
2022-11-06T00:39:23.726Z,9.60
2022-11-06T00:42:26.123Z,9.54
2022-11-06T00:45:28.509Z,9.59
2022-11-06T00:48:30.918Z,9.51
2022-11-06T00:51:35.862Z,9.61
2022-11-06T00:54:38.230Z,9.57
2022-11-06T00:57:40.562Z,9.59
2022-11-06T01:00:42.994Z,9.58
2022-11-06T01:03:47.885Z,9.74
2022-11-06T01:06:53.118Z,9.69
2022-11-06T01:09:55.698Z,9.66
2022-11-06T01:12:58.045Z,9.76
2022-11-06T01:16:00.605Z,9.73
2022-11-06T01:19:03.942Z,9.77
2022-11-06T01:22:06.345Z,9.73
2022-11-06T01:25:09.023Z,9.59
2022-11-06T01:28:11.616Z,9.62
2022-11-06T01:31:17.658Z,9.61
2022-11-06T01:34:19.991Z,9.58
2022-11-06T01:37:22.519Z,9.53
2022-11-06T01:40:25.059Z,9.53
2022-11-06T01:43:56.406Z,9.59
2022-11-06T01:46:59.334Z,9.45
2022-11-06T01:50:06.809Z,9.46
2022-11-06T01:53:09.280Z,9.42
2022-11-06T01:56:12.470Z,9.37
2022-11-06T01:59:17.018Z,9.25
2022-11-06T02:02:19.920Z,9.29
2022-11-06T02:05:23.046Z,9.24
2022-11-06T02:08:25.523Z,9.20
2022-11-06T02:11:28.276Z,9.04
2022-11-06T02:14:43.040Z,9.17
2022-11-06T02:18:30.478Z,9.15
2022-11-06T02:21:58.818Z,9.08
2022-11-06T02:25:16.178Z,9.02
2022-11-06T02:28:43.019Z,8.93
2022-11-06T02:31:45.896Z,8.91
2022-11-06T02:34:49.615Z,8.97
2022-11-06T02:37:58.142Z,9.14
2022-11-06T02:41:05.210Z,9.13
2022-11-06T02:44:10.055Z,9.23
2022-11-06T02:47:13.599Z,9.22
2022-11-06T02:50:26.112Z,9.22
2022-11-06T02:53:30.818Z,9.18
2022-11-06T02:56:36.839Z,9.12
2022-11-06T02:59:50.499Z,9.11
2022-11-06T03:03:02.044Z,9.20
2022-11-06T03:06:08.047Z,9.02
2022-11-06T03:09:20.377Z,9.20
2022-11-06T03:12:29.747Z,9.14
2022-11-06T03:16:18.704Z,9.21
2022-11-06T03:19:27.645Z,9.15
2022-11-06T03:22:35.940Z,9.02
2022-11-06T03:25:45.227Z,9.06
2022-11-06T03:29:06.044Z,9.01
2022-11-06T03:32:15.568Z,8.95
2022-11-06T03:35:39.106Z,8.98
2022-11-06T03:38:45.047Z,8.90
2022-11-06T03:42:03.206Z,8.75
2022-11-06T03:45:25.853Z,8.79
2022-11-06T03:48:43.977Z,8.64
2022-11-06T03:51:56.926Z,8.72
2022-11-06T03:55:23.472Z,8.65
2022-11-06T03:58:30.366Z,8.56
2022-11-06T04:01:36.421Z,8.43
2022-11-06T04:04:48.235Z,8.53
2022-11-06T04:08:13.395Z,8.50
2022-11-06T04:11:37.306Z,8.48
2022-11-06T04:14:42.605Z,8.51
2022-11-06T04:17:45.073Z,8.43
2022-11-06T04:21:21.605Z,8.52
2022-11-06T04:25:03.540Z,8.41
2022-11-06T04:28:46.855Z,8.41
2022-11-06T04:32:08.072Z,8.54
2022-11-06T04:35:18.097Z,8.58
2022-11-06T04:38:37.354Z,8.38
2022-11-06T04:41:50.267Z,8.48
2022-11-06T04:44:58.246Z,8.52
2022-11-06T04:48:01.049Z,8.42
2022-11-06T04:51:06.556Z,8.51
2022-11-06T04:54:10.244Z,8.35
2022-11-06T04:57:12.764Z,8.42
2022-11-06T05:00:15.925Z,8.36
2022-11-06T05:03:18.882Z,8.35
2022-11-06T05:06:23.540Z,8.42
2022-11-06T05:09:29.724Z,8.40
2022-11-06T05:12:32.063Z,8.50
2022-11-06T05:15:34.490Z,8.45
2022-11-06T05:18:36.847Z,8.36
2022-11-06T05:21:57.462Z,8.61
2022-11-06T05:24:59.878Z,8.57
2022-11-06T05:28:05.795Z,8.62
2022-11-06T05:31:08.138Z,8.57
2022-11-06T05:34:10.680Z,8.62
2022-11-06T05:37:13.037Z,8.65
2022-11-06T05:40:17.218Z,8.63
2022-11-06T05:43:19.578Z,8.66
2022-11-06T05:46:47.013Z,8.57
2022-11-06T05:49:44.407Z,8.58
2022-11-06T05:52:46.783Z,8.72
2022-11-06T05:55:49.115Z,8.63
2022-11-06T05:58:51.584Z,8.73
2022-11-06T06:01:54.024Z,8.70
2022-11-06T06:04:56.509Z,8.74
2022-11-06T06:07:58.948Z,8.58
2022-11-06T06:11:06.504Z,8.66
2022-11-06T06:14:08.879Z,8.73
2022-11-06T06:17:11.218Z,8.66
2022-11-06T06:20:19.314Z,8.75
2022-11-06T06:23:21.709Z,8.83
2022-11-06T06:26:24.154Z,8.84
2022-11-06T06:29:26.472Z,8.73
2022-11-06T06:32:28.852Z,8.80
2022-11-06T06:35:31.275Z,8.85
2022-11-06T06:38:33.833Z,9.02
2022-11-06T06:41:36.679Z,9.14
2022-11-06T06:44:39.314Z,9.11
2022-11-06T06:47:41.901Z,9.23
2022-11-06T06:50:44.356Z,9.19
2022-11-06T06:53:46.680Z,9.23
2022-11-06T06:56:49.040Z,9.30
2022-11-06T06:59:51.439Z,9.41
2022-11-06T07:02:54.117Z,9.41
2022-11-06T07:05:59.389Z,9.54
2022-11-06T07:09:01.797Z,9.70
2022-11-06T07:12:04.470Z,9.69
2022-11-06T07:15:07.734Z,9.88
2022-11-06T07:18:10.229Z,10.02
2022-11-06T07:21:13.053Z,10.19
2022-11-06T07:24:18.072Z,10.34
2022-11-06T07:27:20.413Z,10.32
2022-11-06T07:30:25.886Z,10.49
2022-11-06T07:33:28.306Z,10.62
2022-11-06T07:36:32.762Z,10.72
2022-11-06T07:39:35.183Z,10.69
2022-11-06T07:42:43.127Z,10.85
2022-11-06T07:45:49.958Z,10.93
2022-11-06T07:48:52.510Z,11.03
2022-11-06T07:51:55.374Z,11.04
2022-11-06T07:54:57.736Z,10.88
2022-11-06T07:58:00.121Z,10.97
2022-11-06T08:01:03.225Z,11.07
2022-11-06T08:04:05.673Z,11.21
2022-11-06T08:07:08.021Z,11.27
2022-11-06T08:10:10.624Z,11.15
2022-11-06T08:13:16.583Z,11.38
2022-11-06T08:16:18.941Z,11.42
2022-11-06T08:19:21.771Z,11.54
2022-11-06T08:22:24.163Z,11.56
2022-11-06T08:25:27.207Z,11.59
2022-11-06T08:28:29.736Z,11.67
2022-11-06T08:31:32.128Z,11.70
2022-11-06T08:34:35.959Z,11.67
2022-11-06T08:37:38.354Z,11.77
2022-11-06T08:40:41.132Z,11.83
2022-11-06T08:43:43.484Z,11.90
2022-11-06T08:46:51.904Z,11.88
2022-11-06T08:49:56.065Z,11.99
2022-11-06T08:53:04.083Z,12.03
2022-11-06T08:56:06.781Z,11.95
2022-11-06T08:59:09.225Z,12.06
2022-11-06T09:02:12.997Z,12.03
2022-11-06T09:05:15.645Z,11.98
2022-11-06T09:08:18.064Z,11.97
2022-11-06T09:11:20.408Z,12.10
2022-11-06T09:14:22.786Z,12.15
2022-11-06T09:17:25.216Z,12.25
2022-11-06T09:20:27.677Z,12.30
2022-11-06T09:23:30.086Z,12.20
2022-11-06T09:26:32.521Z,12.38
2022-11-06T09:29:34.899Z,12.46
2022-11-06T09:32:37.426Z,12.45
2022-11-06T09:35:39.986Z,12.53
2022-11-06T09:38:42.417Z,12.72
2022-11-06T09:42:08.172Z,12.80
2022-11-06T09:45:17.746Z,12.81
2022-11-06T09:48:34.972Z,12.93
2022-11-06T09:52:10.939Z,12.92
2022-11-06T09:55:20.616Z,12.97
2022-11-06T09:58:43.778Z,13.02
2022-11-06T10:01:49.653Z,12.94
2022-11-06T10:05:05.879Z,13.04
2022-11-06T10:08:22.156Z,12.98
2022-11-06T10:11:35.125Z,13.07
2022-11-06T10:14:49.806Z,13.12
2022-11-06T10:18:03.867Z,13.12
2022-11-06T10:21:22.997Z,13.15
2022-11-06T10:24:45.139Z,13.24
2022-11-06T10:28:26.285Z,13.24
2022-11-06T10:31:44.176Z,13.33
2022-11-06T10:35:15.848Z,13.39
2022-11-06T10:38:39.208Z,13.37
2022-11-06T10:41:44.001Z,13.17
2022-11-06T10:44:49.275Z,13.37
2022-11-06T10:47:55.530Z,13.37
2022-11-06T10:51:12.754Z,13.37
2022-11-06T10:54:15.155Z,13.34
2022-11-06T10:57:43.452Z,13.35
2022-11-06T11:00:46.064Z,13.39
2022-11-06T11:03:49.569Z,13.37
2022-11-06T11:06:51.925Z,13.39
2022-11-06T11:09:54.455Z,13.32
2022-11-06T11:13:00.769Z,13.37
2022-11-06T11:16:05.692Z,13.30
2022-11-06T11:19:33.360Z,13.38
2022-11-06T11:22:35.965Z,13.47
2022-11-06T11:25:38.504Z,13.48
2022-11-06T11:28:41.107Z,13.52
2022-11-06T11:31:47.006Z,13.50
2022-11-06T11:34:56.432Z,13.64
2022-11-06T11:38:14.123Z,13.72
2022-11-06T11:41:19.795Z,13.83
2022-11-06T11:44:22.289Z,14.12
2022-11-06T11:47:24.797Z,14.18
2022-11-06T11:50:32.150Z,14.43
2022-11-06T11:53:34.527Z,14.13
2022-11-06T11:57:06.354Z,14.31
2022-11-06T12:00:20.107Z,14.30
2022-11-06T12:03:36.486Z,14.21
2022-11-06T12:07:01.802Z,14.39
2022-11-06T12:10:32.915Z,14.45
2022-11-06T12:13:35.502Z,14.50
2022-11-06T12:16:37.952Z,14.38
2022-11-06T12:19:43.939Z,14.28
2022-11-06T12:22:47.839Z,14.54
2022-11-06T12:26:00.014Z,15.25
2022-11-06T12:29:15.352Z,15.21
2022-11-06T12:32:20.930Z,14.86
2022-11-06T12:35:38.273Z,14.20
2022-11-06T12:39:10.984Z,14.24
2022-11-06T12:42:13.696Z,14.23
2022-11-06T12:45:16.566Z,14.26
2022-11-06T12:48:37.424Z,14.11
2022-11-06T12:51:53.521Z,14.04
2022-11-06T12:55:16.101Z,13.96
2022-11-06T12:58:28.268Z,13.87
2022-11-06T13:01:42.813Z,13.78
2022-11-06T13:05:27.070Z,13.71
2022-11-06T13:08:39.069Z,13.61
2022-11-06T13:12:11.952Z,13.54
2022-11-06T13:15:32.339Z,13.49
2022-11-06T13:18:36.633Z,13.37
2022-11-06T13:22:01.497Z,13.41
2022-11-06T13:25:22.617Z,13.27
2022-11-06T13:28:43.876Z,13.27
2022-11-06T13:32:14.616Z,13.37
2022-11-06T13:35:18.846Z,13.34
2022-11-06T13:38:28.847Z,13.34
2022-11-06T13:41:32.315Z,13.17
2022-11-06T13:44:35.440Z,13.03
2022-11-06T13:47:52.143Z,13.05
2022-11-06T13:51:08.038Z,12.82
2022-11-06T13:54:27.232Z,12.88
2022-11-06T13:58:11.215Z,12.83
2022-11-06T14:01:29.471Z,12.75
2022-11-06T14:04:40.927Z,12.70
2022-11-06T14:07:43.903Z,12.61
2022-11-06T14:11:12.876Z,12.51
2022-11-06T14:14:21.558Z,12.50
2022-11-06T14:17:24.776Z,12.29
2022-11-06T14:20:28.914Z,12.42
2022-11-06T14:23:31.234Z,12.79
2022-11-06T14:26:47.448Z,12.53
2022-11-06T14:29:59.954Z,12.35
2022-11-06T14:33:02.358Z,12.25
2022-11-06T14:36:34.158Z,12.08
2022-11-06T14:39:55.882Z,12.21
2022-11-06T14:42:58.434Z,12.02
2022-11-06T14:46:06.606Z,12.04
2022-11-06T14:49:42.057Z,12.03
2022-11-06T14:52:51.852Z,12.02
2022-11-06T14:56:05.955Z,11.93
2022-11-06T14:59:33.247Z,11.97
2022-11-06T15:02:37.386Z,11.79
2022-11-06T15:05:42.587Z,11.79
2022-11-06T15:08:45.279Z,11.74
2022-11-06T15:12:00.786Z,11.69
2022-11-06T15:15:09.369Z,11.56
2022-11-06T15:18:15.117Z,11.55
2022-11-06T15:21:30.615Z,11.39
2022-11-06T15:24:41.003Z,11.42
2022-11-06T15:27:47.885Z,11.29
2022-11-06T15:31:05.832Z,11.24
2022-11-06T15:34:29.257Z,11.25
2022-11-06T15:37:36.001Z,11.03
2022-11-06T15:40:39.553Z,10.97
2022-11-06T15:43:44.713Z,10.97
2022-11-06T15:46:58.251Z,10.89
2022-11-06T15:50:18.422Z,10.72
2022-11-06T15:53:23.120Z,10.75
2022-11-06T15:56:31.550Z,10.72
2022-11-06T15:59:34.135Z,10.54
2022-11-06T16:02:59.353Z,10.49
2022-11-06T16:06:03.132Z,10.49
2022-11-06T16:09:09.175Z,10.41
2022-11-06T16:12:13.332Z,10.40
2022-11-06T16:15:47.311Z,10.40
2022-11-06T16:18:49.855Z,10.24
2022-11-06T16:22:01.179Z,10.22
2022-11-06T16:25:06.138Z,10.19
2022-11-06T16:28:20.291Z,10.23
2022-11-06T16:31:24.916Z,10.21
2022-11-06T16:34:39.876Z,10.19
2022-11-06T16:37:42.940Z,10.13
2022-11-06T16:40:50.324Z,9.96
2022-11-06T16:44:39.022Z,9.76
2022-11-06T16:47:41.491Z,9.68
2022-11-06T16:50:53.274Z,9.79
2022-11-06T16:53:56.561Z,9.94
2022-11-06T16:57:12.746Z,9.75
2022-11-06T17:00:21.390Z,9.61
2022-11-06T17:03:24.250Z,9.24
2022-11-06T17:06:35.506Z,9.44
2022-11-06T17:09:38.602Z,9.47
2022-11-06T17:12:41.244Z,9.41
2022-11-06T17:15:47.252Z,9.43
2022-11-06T17:18:50.631Z,9.40
2022-11-06T17:21:53.279Z,9.54
2022-11-06T17:24:56.114Z,9.29
2022-11-06T17:27:58.914Z,9.34
2022-11-06T17:31:01.299Z,9.19
2022-11-06T17:34:04.091Z,9.27
2022-11-06T17:37:06.757Z,9.21
2022-11-06T17:40:10.119Z,9.43
2022-11-06T17:43:12.887Z,9.40
2022-11-06T17:46:16.969Z,9.39
2022-11-06T17:49:19.624Z,9.40
2022-11-06T17:52:22.211Z,9.35
2022-11-06T17:55:24.946Z,9.23
2022-11-06T17:58:27.582Z,9.13
2022-11-06T18:01:30.318Z,9.02
2022-11-06T18:04:34.426Z,8.97
2022-11-06T18:07:37.158Z,9.03
2022-11-06T18:10:40.595Z,9.01
2022-11-06T18:13:45.323Z,8.88
2022-11-06T18:16:48.453Z,8.77
2022-11-06T18:19:51.827Z,8.70
2022-11-06T18:22:54.466Z,8.66
2022-11-06T18:25:57.748Z,8.60
2022-11-06T18:29:00.351Z,8.52
2022-11-06T18:32:03.118Z,8.37
2022-11-06T18:35:06.502Z,8.35
2022-11-06T18:38:09.959Z,8.27
2022-11-06T18:41:18.831Z,8.18
2022-11-06T18:44:21.284Z,8.05
2022-11-06T18:47:24.486Z,8.56
2022-11-06T18:50:28.159Z,8.70
2022-11-06T18:53:31.615Z,8.74
2022-11-06T18:56:36.251Z,8.67
2022-11-06T18:59:39.233Z,8.50
2022-11-06T19:02:42.172Z,8.43
2022-11-06T19:05:49.228Z,8.26
2022-11-06T19:08:51.865Z,8.26
2022-11-06T19:11:54.706Z,8.41
2022-11-06T19:14:57.396Z,8.32
2022-11-06T19:18:01.045Z,8.06
2022-11-06T19:21:05.642Z,8.15
2022-11-06T19:24:08.367Z,8.00
2022-11-06T19:27:11.023Z,7.96
2022-11-06T19:30:14.485Z,8.06
2022-11-06T19:33:17.199Z,7.95
2022-11-06T19:36:21.886Z,7.92
2022-11-06T19:39:24.846Z,7.94
2022-11-06T19:42:27.483Z,7.93
2022-11-06T19:45:30.164Z,7.96
2022-11-06T19:48:32.989Z,7.91
2022-11-06T19:51:37.577Z,7.74
2022-11-06T19:54:40.490Z,7.39
2022-11-06T19:57:43.187Z,7.33
2022-11-06T20:00:47.991Z,7.26
2022-11-06T20:03:50.646Z,7.21
2022-11-06T20:06:53.646Z,7.34
2022-11-06T20:10:02.019Z,7.02
2022-11-06T20:13:05.198Z,6.89
2022-11-06T20:16:16.722Z,6.93
2022-11-06T20:19:19.415Z,7.07
2022-11-06T20:22:22.112Z,7.00
2022-11-06T20:25:24.731Z,7.39
2022-11-06T20:28:28.861Z,7.29
2022-11-06T20:31:32.077Z,7.16
2022-11-06T20:34:34.963Z,7.05
2022-11-06T20:37:37.693Z,7.25
2022-11-06T20:40:41.456Z,7.26
2022-11-06T20:43:44.346Z,7.53
2022-11-06T20:46:47.960Z,7.39
2022-11-06T20:49:52.673Z,7.34
2022-11-06T20:52:55.004Z,7.30
2022-11-06T20:56:03.046Z,7.36
2022-11-06T20:59:07.059Z,7.25
2022-11-06T21:02:11.309Z,7.33
2022-11-06T21:05:17.069Z,7.33
2022-11-06T21:08:19.707Z,7.26
2022-11-06T21:11:27.369Z,7.11
2022-11-06T21:14:30.242Z,7.20
2022-11-06T21:17:33.017Z,6.87
2022-11-06T21:20:37.799Z,6.81
2022-11-06T21:23:40.982Z,6.61
2022-11-06T21:26:43.650Z,6.57
2022-11-06T21:29:46.095Z,6.58
2022-11-06T21:32:48.779Z,6.52
2022-11-06T21:35:51.551Z,6.75
2022-11-06T21:38:55.143Z,6.84
2022-11-06T21:41:57.682Z,7.01
2022-11-06T21:45:00.083Z,6.80
2022-11-06T21:48:05.588Z,6.86
2022-11-06T21:51:21.663Z,6.82
2022-11-06T21:54:42.705Z,6.66
2022-11-06T21:57:45.069Z,6.55
2022-11-06T22:00:48.235Z,6.55
2022-11-06T22:03:51.584Z,6.48
2022-11-06T22:06:53.952Z,6.18
2022-11-06T22:09:56.460Z,6.06
2022-11-06T22:12:58.827Z,6.27
2022-11-06T22:16:01.583Z,6.31
2022-11-06T22:19:06.776Z,6.34
2022-11-06T22:22:09.257Z,6.42
2022-11-06T22:25:12.123Z,6.39
2022-11-06T22:28:14.550Z,6.28
2022-11-06T22:31:16.906Z,6.23
2022-11-06T22:34:19.467Z,6.37
2022-11-06T22:37:21.895Z,6.38
2022-11-06T22:40:24.297Z,6.26
2022-11-06T22:43:27.252Z,6.18
2022-11-06T22:46:30.225Z,6.22
2022-11-06T22:49:33.428Z,6.22
2022-11-06T22:52:35.790Z,6.24
2022-11-06T22:55:38.268Z,6.16
2022-11-06T22:58:41.019Z,6.02
2022-11-06T23:01:43.812Z,6.06
2022-11-06T23:04:46.244Z,6.09
2022-11-06T23:07:48.669Z,5.94
2022-11-06T23:10:51.061Z,5.75
2022-11-06T23:13:54.376Z,6.00
2022-11-06T23:17:04.266Z,5.85
2022-11-06T23:20:07.628Z,5.70
2022-11-06T23:23:10.039Z,5.75
2022-11-06T23:26:16.407Z,5.87
2022-11-06T23:29:18.794Z,5.69
2022-11-06T23:32:21.599Z,5.64
2022-11-06T23:35:28.054Z,5.69
2022-11-06T23:38:34.596Z,5.90
2022-11-06T23:41:46.336Z,5.87
2022-11-06T23:45:07.735Z,5.95
2022-11-06T23:48:13.944Z,5.90
2022-11-06T23:51:16.776Z,5.81
2022-11-06T23:54:19.173Z,5.83
2022-11-06T23:57:21.690Z,5.66
